Time;durP1;ratioP1;P1;durP2;ratioP2;P2;SDS_P1;SDS_P2;PMS_P1;PMS_P2;Temp;Humidity;BMP_temperature;BMP_pressure;BME280_temperature;BME280_humidity;BME280_pressure;Samples;Min_cycle;Max_cycle;Signal;HPM_P1;HPM_P2
2022/04/26 03:37:06;;;;;;;6.97;3.37;;;;;;;11.02;100.00;99160.56;1743151;82;21347;-70
2022/04/26 03:39:33;;;;;;;4.08;2.95;;;;;;;11.03;100.00;99164.45;1707211;84;21081;-70
2022/04/26 03:42:02;;;;;;;6.65;2.92;;;;;;;11.06;100.00;99172.17;1707032;84;21045;-71
2022/04/26 03:44:29;;;;;;;5.42;2.62;;;;;;;11.06;100.00;99174.81;1707036;84;21117;-70
2022/04/26 03:46:57;;;;;;;7.28;3.00;;;;;;;11.08;100.00;99171.63;1707054;84;21002;-71
2022/04/26 03:49:24;;;;;;;6.00;3.17;;;;;;;11.07;100.00;99176.53;1707129;84;21240;-70
2022/04/26 03:51:52;;;;;;;10.93;2.83;;;;;;;11.10;100.00;99182.94;1707038;84;21093;-70
2022/04/26 03:54:21;;;;;;;11.75;3.30;;;;;;;11.12;100.00;99183.70;1742986;82;21121;-69
2022/04/26 03:56:49;;;;;;;9.88;3.27;;;;;;;11.18;100.00;99189.57;1742594;82;21011;-70
2022/04/26 03:59:16;;;;;;;8.28;3.30;;;;;;;11.18;100.00;99185.62;1743003;80;21565;-71
2022/04/26 04:01:43;;;;;;;7.03;3.20;;;;;;;11.19;100.00;99192.61;1745262;82;21071;-69
2022/04/26 04:04:11;;;;;;;3.77;2.47;;;;;;;11.21;100.00;99190.74;1751502;82;21001;-70
2022/04/26 04:06:38;;;;;;;7.65;2.67;;;;;;;11.23;100.00;99199.42;1751041;82;21041;-70
2022/04/26 04:09:11;;;;;;;4.83;2.67;;;;;;;11.27;100.00;99207.08;1714982;83;21116;-71
2022/04/26 04:11:39;;;;;;;6.87;3.25;;;;;;;11.32;100.00;99205.03;1751851;81;21139;-71
2022/04/26 04:14:07;;;;;;;9.13;3.08;;;;;;;11.35;100.00;99207.97;1750758;82;21163;-71
2022/04/26 04:16:33;;;;;;;6.75;2.83;;;;;;;11.39;100.00;99202.91;1750513;82;21013;-71
2022/04/26 04:19:19;;;;;;;11.05;3.62;;;;;;;11.44;100.00;99209.25;1750876;82;21009;-71
2022/04/26 04:21:50;;;;;;;13.43;3.62;;;;;;;11.48;100.00;99209.44;1714510;83;21073;-70
2022/04/26 04:24:18;;;;;;;7.47;3.08;;;;;;;11.52;100.00;99214.45;1750788;82;21061;-71
2022/04/26 04:26:45;;;;;;;8.78;3.35;;;;;;;11.57;100.00;99210.72;1750733;82;21077;-70
2022/04/26 04:29:13;;;;;;;5.72;3.20;;;;;;;11.63;100.00;99219.62;1714856;83;21648;-70
2022/04/26 04:31:42;;;;;;;7.55;3.85;;;;;;;11.69;100.00;99216.17;1752118;81;21084;-70
2022/04/26 04:34:09;;;;;;;9.05;3.20;;;;;;;11.73;100.00;99211.11;1753829;81;21115;-70
2022/04/26 04:36:38;;;;;;;11.40;4.62;;;;;;;11.76;100.00;99213.57;1753962;81;22154;-70
2022/04/26 04:39:04;;;;;;;9.30;4.50;;;;;;;11.85;100.00;99221.44;1753794;81;21877;-71
2022/04/26 04:41:37;;;;;;;9.88;4.37;;;;;;;11.84;100.00;99219.72;1753526;81;20990;-71
2022/04/26 04:44:06;;;;;;;8.38;4.30;;;;;;;11.87;100.00;99218.28;1753913;81;21025;-71
2022/04/26 04:46:34;;;;;;;10.45;4.72;;;;;;;11.91;100.00;99221.10;1753542;80;21073;-70
2022/04/26 04:49:02;;;;;;;9.38;3.85;;;;;;;12.00;100.00;99220.20;1753835;81;22065;-70
2022/04/26 04:51:31;;;;;;;8.23;3.35;;;;;;;12.05;100.00;99220.31;1753781;81;21318;-71
2022/04/26 04:53:57;;;;;;;7.72;3.50;;;;;;;12.07;100.00;99215.80;1753726;81;21363;-70
2022/04/26 04:56:26;;;;;;;10.48;3.17;;;;;;;12.07;100.00;99220.23;1753774;81;21048;-71
2022/04/26 04:58:54;;;;;;;7.92;3.00;;;;;;;12.05;100.00;99227.38;1753890;80;21053;-70
2022/04/26 05:01:21;;;;;;;6.25;3.52;;;;;;;12.09;100.00;99236.83;1752082;81;21097;-71
2022/04/26 05:03:48;;;;;;;11.10;4.15;;;;;;;12.09;100.00;99234.19;1750767;82;21130;-71
2022/04/26 05:06:15;;;;;;;10.40;3.55;;;;;;;12.05;100.00;99237.94;1750817;82;21014;-71
2022/04/26 05:08:44;;;;;;;7.53;3.98;;;;;;;12.05;100.00;99236.62;1750860;82;21021;-71
2022/04/26 05:11:12;;;;;;;7.25;3.35;;;;;;;12.01;100.00;99241.23;1750935;82;21053;-70
2022/04/26 05:13:39;;;;;;;8.65;3.27;;;;;;;12.02;100.00;99248.68;1751025;82;21025;-71
2022/04/26 05:17:16;;;;;;;6.78;3.30;;;;;;;12.09;100.00;99248.23;1795931;79;22518;-72
2022/04/26 05:19:44;;;;;;;9.33;3.70;;;;;;;12.05;100.00;99252.45;1756884;81;21029;-71
2022/04/26 05:22:11;;;;;;;8.13;3.37;;;;;;;12.09;100.00;99247.39;1756711;81;21490;-71
2022/04/26 05:24:56;;;;;;;7.62;4.08;;;;;;;12.15;100.00;99257.60;1756632;81;20927;-71
2022/04/26 05:27:31;;;;;;;9.75;4.58;;;;;;;12.17;100.00;99258.37;1756561;81;20945;-71
2022/04/26 05:30:01;;;;;;;11.45;5.08;;;;;;;12.19;100.00;99261.74;1756805;81;20946;-69
2022/04/26 05:32:28;;;;;;;17.57;5.53;;;;;;;12.20;100.00;99265.26;1751919;81;21053;-70
2022/04/26 05:35:01;;;;;;;11.38;4.20;;;;;;;12.20;100.00;99263.46;1750986;82;20982;-72
2022/04/26 05:37:31;;;;;;;7.42;4.33;;;;;;;12.21;100.00;99264.30;1750718;82;21029;-70
2022/04/26 05:40:03;;;;;;;12.80;4.70;;;;;;;12.16;100.00;99265.89;1750993;82;20965;-71
2022/04/26 05:42:33;;;;;;;11.48;4.92;;;;;;;12.11;100.00;99269.27;1748717;82;21045;-71
2022/04/26 05:45:00;;;;;;;10.48;4.60;;;;;;;12.12;100.00;99268.31;1699522;83;21038;-71
2022/04/26 05:47:28;;;;;;;11.48;4.42;;;;;;;12.11;100.00;99274.55;1697198;84;21057;-72
2022/04/26 05:49:56;;;;;;;11.75;4.17;;;;;;;12.07;100.00;99278.29;1697376;84;21632;-71
2022/04/26 05:52:26;;;;;;;6.15;3.60;;;;;;;12.06;100.00;99275.28;1697204;84;21104;-71
2022/04/26 05:54:54;;;;;;;7.97;4.03;;;;;;;12.06;100.00;99281.88;1697526;84;21112;-70
2022/04/26 05:57:21;;;;;;;7.67;3.92;;;;;;;12.04;100.00;99279.80;1697391;83;21061;-71
2022/04/26 05:59:47;;;;;;;6.60;3.58;;;;;;;12.03;100.00;99282.91;1697380;84;21319;-71
2022/04/26 06:02:14;;;;;;;9.68;3.70;;;;;;;12.05;100.00;99281.01;1724175;83;21089;-73
2022/04/26 06:04:42;;;;;;;5.95;3.52;;;;;;;12.11;100.00;99282.47;1726564;82;21042;-71
2022/04/26 06:07:10;;;;;;;8.88;3.65;;;;;;;12.14;100.00;99283.59;1726403;83;21053;-71
2022/04/26 06:09:37;;;;;;;8.08;3.22;;;;;;;12.14;100.00;99292.84;1726547;82;21498;-72
2022/04/26 06:12:06;;;;;;;11.10;2.98;;;;;;;12.13;100.00;99292.47;1726409;82;21155;-70
2022/04/26 06:14:34;;;;;;;6.77;3.43;;;;;;;12.06;100.00;99300.35;1726703;82;21022;-71
2022/04/26 06:17:03;;;;;;;13.00;3.83;;;;;;;12.01;100.00;99312.48;1726614;82;21554;-71
2022/04/26 06:19:30;;;;;;;6.42;3.25;;;;;;;11.99;100.00;99304.28;1726880;82;21085;-70
2022/04/26 06:21:57;;;;;;;9.13;4.17;;;;;;;11.96;100.00;99314.06;1726394;83;21057;-71
2022/04/26 06:24:25;;;;;;;5.78;3.33;;;;;;;11.97;100.00;99313.59;1726927;83;21249;-71
2022/04/26 06:26:53;;;;;;;8.98;3.55;;;;;;;11.98;100.00;99313.11;1726600;82;21049;-70
2022/04/26 06:29:19;;;;;;;7.12;3.77;;;;;;;12.00;100.00;99316.52;1726490;83;21065;-70
2022/04/26 06:31:46;;;;;;;8.55;4.30;;;;;;;12.02;100.00;99321.25;1723436;82;21100;-70
2022/04/26 06:34:13;;;;;;;6.85;4.35;;;;;;;12.08;100.00;99313.00;1720768;83;21575;-71
2022/04/26 06:36:40;;;;;;;9.55;5.40;;;;;;;12.15;100.00;99313.03;1720520;83;21121;-71
2022/04/26 06:39:06;;;;;;;9.78;4.85;;;;;;;12.23;100.00;99308.16;1720684;83;21020;-71
2022/04/26 06:41:33;;;;;;;10.43;3.92;;;;;;;12.30;100.00;99302.05;1720753;83;21581;-71
2022/04/26 06:44:01;;;;;;;6.62;3.90;;;;;;;12.40;100.00;99309.84;1706730;82;21097;-72
2022/04/26 06:46:27;;;;;;;7.80;3.65;;;;;;;12.50;100.00;99320.72;1697053;84;21065;-71
2022/04/26 06:48:58;;;;;;;7.90;4.37;;;;;;;12.58;100.00;99321.98;1697209;84;21328;-72
2022/04/26 06:51:25;;;;;;;6.87;4.42;;;;;;;12.66;100.00;99325.97;1697196;84;21098;-71
2022/04/26 06:53:52;;;;;;;7.00;4.10;;;;;;;12.73;100.00;99322.87;1697077;84;21061;-71
2022/04/26 06:56:18;;;;;;;5.58;3.87;;;;;;;12.72;100.00;99324.27;1697013;83;21052;-71
2022/04/26 06:58:46;;;;;;;7.50;4.28;;;;;;;12.76;100.00;99325.80;1696973;84;22286;-71
2022/04/26 07:01:13;;;;;;;9.88;4.20;;;;;;;12.82;100.00;99325.92;1697293;84;21874;-70
2022/04/26 07:03:39;;;;;;;8.43;3.50;;;;;;;12.91;100.00;99329.34;1697348;84;21046;-71
2022/04/26 07:06:07;;;;;;;7.00;3.95;;;;;;;13.00;100.00;99328.31;1697092;84;21061;-72
2022/04/26 07:08:34;;;;;;;8.73;3.75;;;;;;;13.15;100.00;99326.53;1697080;84;21097;-70
2022/04/26 07:11:02;;;;;;;7.50;3.98;;;;;;;13.32;100.00;99335.26;1697116;84;21073;-70
2022/04/26 07:13:30;;;;;;;4.78;3.10;;;;;;;13.52;100.00;99333.56;1697047;84;21109;-71
2022/04/26 07:15:57;;;;;;;5.80;3.05;;;;;;;13.69;100.00;99332.54;1694722;84;21129;-70
2022/04/26 07:18:24;;;;;;;6.62;3.00;;;;;;;13.85;100.00;99331.10;1684710;84;21097;-71
2022/04/26 07:20:52;;;;;;;7.28;2.98;;;;;;;14.00;100.00;99330.11;1684596;84;21640;-72
2022/04/26 07:23:20;;;;;;;5.72;2.72;;;;;;;14.23;100.00;99327.30;1684755;84;21608;-70
2022/04/26 07:25:48;;;;;;;5.78;2.72;;;;;;;14.41;100.00;99329.23;1684700;85;21132;-72
2022/04/26 07:28:15;;;;;;;4.20;2.20;;;;;;;14.57;100.00;99330.91;1684549;85;21077;-71
2022/04/26 07:30:42;;;;;;;4.40;1.90;;;;;;;14.66;100.00;99331.14;1684636;84;22093;-70
2022/04/26 07:35:55;;;;;;;4.30;2.08;;;;;;;15.46;100.00;99329.69;1683253;84;21019;-71
2022/04/26 07:38:23;;;;;;;3.75;1.60;;;;;;;16.09;100.00;99333.68;1682869;84;21176;-70
2022/04/26 07:40:50;;;;;;;3.42;1.50;;;;;;;16.76;100.00;99335.81;1683130;85;21094;-71
2022/04/26 07:43:17;;;;;;;5.60;1.60;;;;;;;17.52;95.70;99328.26;1683038;83;21066;-71
2022/04/26 07:45:45;;;;;;;3.08;1.57;;;;;;;18.10;89.88;99324.95;1683091;84;21050;-71
2022/04/26 07:48:12;;;;;;;3.72;1.50;;;;;;;18.42;83.00;99321.48;1683279;84;21066;-71
2022/04/26 07:50:39;;;;;;;2.80;1.42;;;;;;;18.78;82.11;99322.11;1683150;85;22012;-69
2022/04/26 07:53:06;;;;;;;2.60;1.37;;;;;;;19.27;78.92;99320.59;1683014;84;21109;-71
2022/04/26 07:55:36;;;;;;;3.75;1.30;;;;;;;19.58;76.31;99323.27;1683138;83;21058;-71
2022/04/26 07:58:03;;;;;;;5.35;1.40;;;;;;;20.02;76.20;99317.22;1689768;83;21105;-71
2022/04/26 08:00:31;;;;;;;2.65;1.30;;;;;;;20.78;74.33;99316.61;1713352;83;20987;-71
2022/04/26 08:03:00;;;;;;;4.12;1.10;;;;;;;21.61;66.26;99316.88;1713270;83;21222;-71
2022/04/26 08:05:27;;;;;;;5.12;1.65;;;;;;;22.08;59.13;99314.92;1713726;82;21027;-70
2022/04/26 08:07:55;;;;;;;4.53;1.20;;;;;;;22.17;59.00;99309.99;1713246;82;20998;-71
2022/04/26 08:10:23;;;;;;;4.25;1.30;;;;;;;22.19;56.46;99324.09;1713311;82;21037;-71
2022/04/26 08:12:49;;;;;;;2.30;1.20;;;;;;;21.65;56.16;99324.94;1713063;83;21011;-70
2022/04/26 08:15:19;;;;;;;3.58;1.40;;;;;;;20.97;58.08;99327.28;1713105;82;21819;-71
2022/04/26 08:17:48;;;;;;;2.17;1.30;;;;;;;20.60;59.17;99321.82;1712897;82;21093;-71
2022/04/26 08:20:15;;;;;;;2.27;0.95;;;;;;;20.17;60.10;99327.84;1713056;82;21070;-71
2022/04/26 08:22:44;;;;;;;4.62;1.75;;;;;;;19.86;59.91;99335.94;1712990;82;21089;-72
2022/04/26 08:27:55;;;;;;;4.00;1.30;;;;;;;19.29;61.13;99336.83;1713054;83;21901;-70
2022/04/26 08:30:23;;;;;;;6.35;1.70;;;;;;;18.84;62.15;99344.25;1713149;83;21042;-72
2022/04/26 08:32:51;;;;;;;5.92;1.47;;;;;;;18.73;62.69;99347.80;1707592;82;21057;-70
2022/04/26 08:35:22;;;;;;;5.37;1.50;;;;;;;18.60;63.94;99337.29;1707353;84;21609;-71
2022/04/26 08:37:48;;;;;;;3.73;1.30;;;;;;;18.65;63.87;99344.41;1707555;83;21097;-70
2022/04/26 08:40:16;;;;;;;3.20;1.22;;;;;;;18.61;63.05;99341.67;1707146;82;21862;-71
2022/04/26 08:42:45;;;;;;;2.80;1.20;;;;;;;18.72;63.02;99347.91;1707067;84;21090;-71
2022/04/26 08:45:15;;;;;;;;;;;;;;;18.94;62.56;99353.68;1709319;83;21045;-71
2022/04/26 08:53:20;;;;;;;4.80;1.12;;;;;;;19.39;60.07;99352.90;1707166;84;21259;-70
2022/04/26 08:55:52;;;;;;;1.72;0.90;;;;;;;19.37;59.15;99354.88;1707108;82;21097;-70
2022/04/26 08:58:19;;;;;;;3.25;1.25;;;;;;;19.24;58.75;99351.56;1706417;83;21066;-71
2022/04/26 09:01:15;;;;;;;3.27;1.12;;;;;;;19.15;59.40;99349.68;1707429;84;21056;-71
2022/04/26 09:03:59;;;;;;;4.75;1.60;;;;;;;19.22;60.54;99355.69;1707354;84;21061;-69
2022/04/26 09:06:36;;;;;;;2.83;1.75;;;;;;;19.32;60.64;99351.73;1707292;84;21212;-70
2022/04/26 09:09:10;;;;;;;3.00;1.27;;;;;;;19.36;60.98;99365.68;1707277;84;21045;-72
2022/04/26 09:11:37;;;;;;;4.40;1.50;;;;;;;19.36;61.06;99367.86;1707230;84;21037;-70
2022/04/26 09:14:10;;;;;;;3.67;1.45;;;;;;;19.43;61.25;99365.02;1707299;84;21590;-71
2022/04/26 09:16:36;;;;;;;3.37;1.50;;;;;;;19.49;61.62;99369.83;1709595;83;21045;-72
2022/04/26 09:19:06;;;;;;;6.95;1.90;;;;;;;19.57;62.35;99367.83;1720564;83;21989;-75
2022/04/26 09:21:35;;;;;;;5.33;1.85;;;;;;;19.61;60.71;99372.42;1720586;83;21600;-72
2022/04/26 09:24:06;;;;;;;5.47;1.75;;;;;;;19.55;61.18;99374.28;1720557;82;21057;-72
2022/04/26 09:26:37;;;;;;;6.90;1.98;;;;;;;19.53;61.18;99370.89;1720527;83;21056;-70
2022/04/26 09:29:06;;;;;;;3.85;1.85;;;;;;;19.42;61.89;99373.17;1720724;83;21096;-71
2022/04/26 09:31:37;;;;;;;7.10;1.57;;;;;;;19.25;62.29;99377.27;1715725;83;21103;-71
2022/04/26 09:34:12;;;;;;;4.92;1.72;;;;;;;19.05;62.34;99374.48;1720624;83;21076;-70
2022/04/26 09:36:50;;;;;;;2.95;1.40;;;;;;;19.03;63.43;99380.42;1720454;83;21099;-71
2022/04/26 09:39:19;;;;;;;3.58;1.75;;;;;;;19.11;62.89;99381.10;1720638;83;21084;-70
2022/04/26 09:41:50;;;;;;;2.37;1.60;;;;;;;18.99;62.70;99386.98;1720436;82;21579;-71
2022/04/26 09:44:17;;;;;;;5.58;1.70;;;;;;;18.66;63.57;99390.13;1720614;83;21110;-71
2022/04/26 09:46:50;;;;;;;5.37;1.50;;;;;;;18.36;64.16;99395.31;1720288;83;21124;-71
2022/04/26 09:49:18;;;;;;;4.20;1.60;;;;;;;18.15;65.02;99396.06;1720360;83;21077;-72
2022/04/26 09:51:46;;;;;;;5.05;1.70;;;;;;;18.07;65.32;99398.48;1720660;83;21073;-71
2022/04/26 09:54:13;;;;;;;4.35;2.00;;;;;;;18.06;66.04;99408.80;1720557;82;21586;-71
2022/04/26 09:56:45;;;;;;;4.22;1.60;;;;;;;18.09;65.72;99408.53;1720428;83;21064;-70
2022/04/26 09:59:15;;;;;;;;;;;;;;;17.97;66.09;99416.19;1723198;83;21093;-71
2022/04/26 10:01:45;;;;;;;2.72;1.60;;;;;;;17.85;66.12;99418.46;1720746;83;20254;-70
2022/04/26 10:04:17;;;;;;;5.03;1.60;;;;;;;17.82;66.59;99422.22;1720641;83;21565;-71
2022/04/26 10:06:44;;;;;;;3.60;1.70;;;;;;;17.82;65.67;99416.89;1720954;83;21556;-70
2022/04/26 10:09:10;;;;;;;4.25;1.67;;;;;;;17.86;65.59;99426.83;1720727;83;21138;-72
2022/04/26 10:11:37;;;;;;;3.17;1.32;;;;;;;17.86;65.46;99420.17;1720557;83;21065;-72
2022/04/26 10:14:07;;;;;;;3.95;1.67;;;;;;;17.94;64.68;99418.58;1720488;83;21109;-70
2022/04/26 10:16:34;;;;;;;14.55;7.15;;;;;;;18.10;64.26;99424.88;1720154;83;21064;-71
2022/04/26 10:19:08;;;;;;;8.48;4.65;;;;;;;18.31;63.68;99416.14;1707343;84;21096;-72
2022/04/26 10:21:46;;;;;;;4.10;1.82;;;;;;;18.45;63.48;99417.23;1707036;83;21884;-70
2022/04/26 10:24:23;;;;;;;2.72;1.30;;;;;;;18.51;61.42;99407.87;1707247;84;21074;-72
2022/04/26 10:26:53;;;;;;;4.53;1.55;;;;;;;18.39;61.71;99424.38;1707111;84;21053;-71
2022/04/26 10:29:23;;;;;;;5.33;1.85;;;;;;;18.35;63.06;99425.09;1687160;84;21014;-72
2022/04/26 10:32:01;;;;;;;3.08;1.50;;;;;;;18.47;63.55;99423.25;1710510;83;21086;-71
2022/04/26 10:34:31;;;;;;;6.53;1.50;;;;;;;18.73;63.72;99421.64;1713217;83;21568;-71
2022/04/26 10:37:10;;;;;;;3.67;1.70;;;;;;;18.99;61.66;99423.02;1713232;83;21049;-73
2022/04/26 10:39:42;;;;;;;7.58;1.47;;;;;;;19.05;60.87;99430.52;1713312;83;21045;-72
2022/04/26 10:42:20;;;;;;;4.15;1.42;;;;;;;19.13;59.73;99431.20;1713079;83;21262;-69
2022/04/26 10:44:48;;;;;;;3.58;1.60;;;;;;;19.27;59.85;99439.38;1713491;83;21069;-72
2022/04/26 10:47:21;;;;;;;6.08;2.40;;;;;;;19.51;58.96;99443.15;1713116;83;22089;-71
2022/04/26 10:49:49;;;;;;;6.53;2.60;;;;;;;19.65;58.30;99453.98;1713517;82;21049;-71
2022/04/26 10:52:27;;;;;;;9.60;3.40;;;;;;;19.80;57.62;99457.19;1713109;82;21054;-72
2022/04/26 10:55:02;;;;;;;8.20;2.80;;;;;;;19.80;58.21;99450.01;1713446;82;21534;-70
2022/04/26 10:57:39;;;;;;;5.85;2.50;;;;;;;19.80;57.45;99452.69;1713118;82;21037;-71
2022/04/26 11:00:19;;;;;;;5.62;2.20;;;;;;;19.84;56.92;99458.13;1713384;82;22503;-71
2022/04/26 11:02:49;;;;;;;6.85;2.70;;;;;;;20.19;55.66;99464.90;1712675;82;21019;-71
2022/04/26 11:05:25;;;;;;;7.30;2.33;;;;;;;20.44;53.99;99465.42;1713514;82;21043;-73
2022/04/26 11:07:53;;;;;;;5.58;2.33;;;;;;;20.80;52.14;99466.67;1712936;82;21541;-71
2022/04/26 11:10:24;;;;;;;6.65;3.10;;;;;;;21.11;51.69;99463.87;1713186;83;21562;-71
2022/04/26 11:12:52;;;;;;;7.83;3.00;;;;;;;21.44;50.78;99470.67;1713518;82;21238;-71
2022/04/26 11:15:22;;;;;;;10.28;3.30;;;;;;;21.61;50.55;99466.91;1713131;82;21408;-71
2022/04/26 11:17:52;;;;;;;7.03;3.07;;;;;;;21.68;49.85;99469.36;1713164;83;21022;-71
2022/04/26 11:20:22;;;;;;;7.05;3.02;;;;;;;21.64;49.05;99467.45;1713046;83;21755;-71
2022/04/26 11:22:53;;;;;;;9.18;2.70;;;;;;;21.63;49.21;99470.30;1713093;83;21499;-72
2022/04/26 11:28:14;;;;;;;9.70;3.20;;;;;;;21.16;50.18;99462.48;1713150;83;21033;-70
2022/04/26 11:30:46;;;;;;;6.90;3.00;;;;;;;20.91;51.28;99467.88;1713752;82;21029;-70
2022/04/26 11:33:19;;;;;;;8.18;2.65;;;;;;;20.79;51.85;99468.13;1712981;83;21102;-71
2022/04/26 11:35:56;;;;;;;9.45;3.10;;;;;;;20.68;51.74;99473.97;1713328;83;21049;-71
2022/04/26 11:38:24;;;;;;;6.55;2.77;;;;;;;20.33;51.78;99473.05;1713257;82;21140;-71
2022/04/26 11:41:00;;;;;;;6.35;2.70;;;;;;;20.05;53.01;99473.28;1713455;83;21138;-71
2022/04/26 11:43:38;;;;;;;7.08;2.45;;;;;;;19.96;53.92;99468.73;1713154;83;21526;-71
2022/04/26 11:46:03;;;;;;;5.12;2.10;;;;;;;20.04;53.86;99476.95;1712820;82;21065;-71
2022/04/26 11:48:34;;;;;;;4.35;1.72;;;;;;;20.11;54.40;99471.42;1713176;83;21745;-72
2022/04/26 11:51:02;;;;;;;6.28;1.32;;;;;;;20.27;53.43;99471.77;1713386;82;21030;-71
2022/04/26 11:53:31;;;;;;;3.67;1.60;;;;;;;20.46;53.93;99467.47;1713104;82;20990;-72
2022/04/26 11:56:02;;;;;;;2.67;1.60;;;;;;;20.59;52.98;99463.22;1713284;82;21067;-70
2022/04/26 11:58:35;;;;;;;4.33;1.70;;;;;;;20.49;52.65;99468.52;1713413;83;21015;-71
2022/04/26 12:01:11;;;;;;;2.95;1.40;;;;;;;20.27;52.52;99471.77;1713460;83;21018;-71
2022/04/26 12:03:48;;;;;;;4.00;1.30;;;;;;;20.12;52.93;99473.94;1713569;82;21744;-72
2022/04/26 12:06:26;;;;;;;4.12;1.45;;;;;;;19.98;53.50;99479.64;1713494;82;21046;-70
2022/04/26 12:08:59;;;;;;;3.60;1.67;;;;;;;19.80;53.44;99474.05;1713466;82;21098;-70
2022/04/26 12:11:35;;;;;;;5.37;1.60;;;;;;;19.79;56.31;99481.73;1703277;83;21026;-71
2022/04/26 12:14:12;;;;;;;3.70;1.50;;;;;;;19.71;62.58;99486.87;1713229;82;21092;-72
2022/04/26 12:16:47;;;;;;;2.70;1.20;;;;;;;19.57;65.85;99481.83;1713235;82;21144;-71
2022/04/26 12:19:16;;;;;;;4.67;1.50;;;;;;;19.55;69.69;99482.44;1724770;81;21073;-72
2022/04/26 12:21:52;;;;;;;5.90;2.05;;;;;;;19.65;70.07;99478.03;1726400;83;21080;-71
2022/04/26 12:24:24;;;;;;;5.03;1.52;;;;;;;19.70;70.09;99480.68;1725938;82;21041;-71
2022/04/26 12:27:01;;;;;;;7.37;2.10;;;;;;;19.83;68.53;99481.83;1725768;82;21088;-71
2022/04/26 12:29:41;;;;;;;2.85;1.42;;;;;;;19.96;66.21;99479.42;1726259;82;21128;-73
2022/04/26 12:32:15;;;;;;;2.35;1.22;;;;;;;20.11;64.03;99486.96;1722067;82;21081;-72
2022/04/26 12:35:00;;;;;;;2.67;1.57;;;;;;;20.00;58.84;99476.85;1720781;83;21027;-70
2022/04/26 12:37:29;;;;;;;4.42;1.62;;;;;;;19.78;60.05;99484.02;1720544;82;21105;-72
2022/04/26 12:40:01;;;;;;;3.90;1.40;;;;;;;19.44;59.78;99487.34;1720714;83;21021;-71
2022/04/26 12:42:35;;;;;;;3.65;1.60;;;;;;;19.02;60.31;99481.45;1720395;83;21259;-71
2022/04/26 12:45:12;;;;;;;3.00;1.05;;;;;;;18.62;63.30;99493.17;1720520;83;22150;-70
2022/04/26 12:50:35;;;;;;;3.25;1.60;;;;;;;18.27;63.35;99489.30;1720654;82;21100;-72
2022/04/26 12:53:07;;;;;;;2.85;2.00;;;;;;;18.42;63.23;99490.77;1720762;83;21041;-70
2022/04/26 12:55:41;;;;;;;2.58;1.27;;;;;;;18.70;62.56;99488.55;1718492;83;21056;-71
2022/04/26 12:58:11;;;;;;;2.80;1.22;;;;;;;18.87;59.66;99492.06;1720810;83;21568;-69
2022/04/26 13:00:43;;;;;;;4.17;1.37;;;;;;;18.80;60.13;99498.38;1720726;83;21510;-71
2022/04/26 13:03:13;;;;;;;3.92;1.30;;;;;;;18.86;59.17;99487.23;1720470;82;21076;-71
2022/04/26 13:05:44;;;;;;;3.47;1.50;;;;;;;18.92;59.47;99486.36;1720648;83;21089;-72
2022/04/26 13:08:13;;;;;;;2.72;1.20;;;;;;;18.84;59.05;99490.50;1720961;83;22216;-71
2022/04/26 13:10:44;;;;;;;2.92;1.65;;;;;;;18.80;59.39;99493.55;1720504;83;21053;-71
2022/04/26 13:13:10;;;;;;;4.50;1.60;;;;;;;18.81;60.06;99496.56;1719944;83;21064;-72
2022/04/26 13:15:38;;;;;;;5.30;1.55;;;;;;;18.80;60.03;99503.72;1720549;83;21089;-71
2022/04/26 13:18:05;;;;;;;3.40;1.40;;;;;;;18.75;59.22;99495.68;1716837;83;21053;-72
2022/04/26 13:20:32;;;;;;;4.42;1.70;;;;;;;18.73;59.07;99498.98;1707132;84;22204;-72
2022/04/26 13:22:59;;;;;;;4.45;1.70;;;;;;;18.78;58.31;99496.33;1707213;84;21065;-71
2022/04/26 13:25:28;;;;;;;4.00;1.80;;;;;;;18.73;57.21;99506.98;1707360;83;21003;-71
2022/04/26 13:27:55;;;;;;;4.75;2.12;;;;;;;18.71;58.17;99498.26;1707272;84;21113;-71
2022/04/26 13:30:23;;;;;;;6.95;3.15;;;;;;;18.68;58.70;99499.36;1707707;84;21667;-72
2022/04/26 13:32:53;;;;;;;7.67;3.52;;;;;;;18.64;58.42;99502.74;1712926;83;21232;-72
2022/04/26 13:35:20;;;;;;;11.20;4.30;;;;;;;18.53;58.92;99508.09;1713409;83;21051;-71
2022/04/26 13:37:46;;;;;;;8.33;3.87;;;;;;;18.44;59.08;99513.66;1713346;82;21089;-71
2022/04/26 13:40:15;;;;;;;8.78;3.95;;;;;;;18.41;59.33;99507.74;1713472;82;21158;-71
2022/04/26 13:42:42;;;;;;;7.80;3.90;;;;;;;18.35;59.29;99505.55;1713354;82;21593;-71
2022/04/26 13:45:09;;;;;;;6.10;3.22;;;;;;;18.26;59.73;99510.28;1713500;83;21874;-70
2022/04/26 13:47:37;;;;;;;7.05;2.85;;;;;;;18.14;59.61;99507.61;1713423;83;21029;-72
2022/04/26 13:50:07;;;;;;;5.95;1.98;;;;;;;17.95;59.85;99512.20;1713475;82;21507;-73
2022/04/26 13:52:35;;;;;;;4.17;2.08;;;;;;;17.74;61.13;99510.67;1713163;82;21033;-70
2022/04/26 13:55:05;;;;;;;2.62;1.60;;;;;;;17.61;61.61;99516.56;1713409;83;21332;-71
2022/04/26 13:57:33;;;;;;;2.17;1.42;;;;;;;17.48;61.53;99515.30;1713074;82;21658;-72
2022/04/26 14:00:01;;;;;;;4.25;1.12;;;;;;;17.35;62.12;99527.37;1713525;83;22122;-71
2022/04/26 14:02:29;;;;;;;3.30;1.50;;;;;;;17.26;62.53;99530.72;1713302;83;21061;-71
2022/04/26 14:04:56;;;;;;;3.02;1.77;;;;;;;17.18;63.23;99533.08;1713270;83;21007;-71
2022/04/26 14:07:25;;;;;;;2.25;1.62;;;;;;;17.19;63.55;99540.11;1713479;82;21049;-71
2022/04/26 14:09:54;;;;;;;1.87;1.50;;;;;;;17.09;64.02;99541.73;1713569;82;21038;-72
2022/04/26 14:12:20;;;;;;;3.37;1.80;;;;;;;17.02;64.14;99543.16;1713572;82;21101;-72
2022/04/26 14:23:06;;;;;;;2.52;1.55;;;;;;;16.43;66.56;99556.62;1713321;82;21542;-71
2022/04/26 14:25:35;;;;;;;6.35;1.70;;;;;;;16.32;66.91;99556.52;1713324;82;21518;-71
2022/04/26 14:28:01;;;;;;;1.82;1.55;;;;;;;16.22;67.87;99559.42;1713405;83;21043;-71
2022/04/26 14:30:29;;;;;;;2.00;1.62;;;;;;;16.12;68.93;99562.72;1713175;83;21049;-71
2022/04/26 14:32:57;;;;;;;2.15;1.85;;;;;;;16.14;69.60;99559.97;1679113;82;21546;-70
2022/04/26 14:35:28;;;;;;;2.00;1.70;;;;;;;16.11;70.92;99563.69;1678887;85;21365;-72
2022/04/26 14:37:54;;;;;;;2.10;1.70;;;;;;;16.14;71.45;99566.13;1678742;85;21117;-71
2022/04/26 14:40:20;;;;;;;2.10;1.70;;;;;;;16.21;71.04;99563.05;1679104;85;21124;-71
2022/04/26 14:42:48;;;;;;;2.75;2.00;;;;;;;16.23;71.32;99558.48;1659483;85;21133;-72
2022/04/26 14:45:16;;;;;;;1.95;1.57;;;;;;;16.21;71.77;99563.05;1679072;85;21058;-73
2022/04/26 14:47:44;;;;;;;2.98;1.90;;;;;;;16.21;71.68;99571.87;1678819;85;21057;-71
2022/04/26 14:50:13;;;;;;;2.30;1.92;;;;;;;16.18;72.10;99568.11;1678868;85;21138;-72
2022/04/26 14:52:40;;;;;;;2.10;1.90;;;;;;;16.08;72.49;99579.85;1678811;85;21077;-71
2022/04/26 14:55:10;;;;;;;2.87;1.72;;;;;;;15.98;73.24;99577.91;1679007;85;21057;-71
2022/04/26 14:57:40;;;;;;;2.80;1.90;;;;;;;15.89;73.67;99577.58;1678985;85;21069;-71
2022/04/26 15:00:08;;;;;;;2.75;1.90;;;;;;;15.92;74.11;99588.49;1678959;85;21524;-73
2022/04/26 15:02:39;;;;;;;2.33;2.02;;;;;;;15.97;74.54;99585.04;1678920;85;21069;-71
2022/04/26 15:05:08;;;;;;;1.87;1.53;;;;;;;15.90;73.96;99590.40;1679246;85;21121;-72
2022/04/26 15:10:23;;;;;;;2.52;1.82;;;;;;;15.76;73.89;99607.70;1679128;85;21129;-72
2022/04/26 15:18:21;;;;;;;3.72;2.17;;;;;;;15.54;74.40;99614.42;1678735;84;21077;-71
2022/04/26 15:20:52;;;;;;;2.52;1.90;;;;;;;15.43;75.69;99620.41;1678926;85;21775;-72
2022/04/26 15:23:21;;;;;;;3.52;1.95;;;;;;;15.45;76.47;99624.30;1678696;85;21041;-72
2022/04/26 15:25:55;;;;;;;2.77;2.05;;;;;;;15.36;76.71;99623.58;1678787;84;21033;-71
2022/04/26 15:28:21;;;;;;;2.50;1.95;;;;;;;15.20;77.17;99631.19;1678228;85;21084;-72
2022/04/26 15:30:48;;;;;;;4.37;2.20;;;;;;;15.10;79.35;99638.05;1682383;83;21125;-73
2022/04/26 15:33:19;;;;;;;3.58;2.17;;;;;;;14.97;80.47;99638.44;1713114;82;21093;-72
2022/04/26 15:35:47;;;;;;;2.60;2.10;;;;;;;14.83;81.22;99636.17;1713715;83;21097;-72
2022/04/26 15:38:14;;;;;;;3.80;2.50;;;;;;;14.70;81.02;99636.58;1713165;83;21237;-72
2022/04/26 15:40:43;;;;;;;3.92;2.60;;;;;;;14.55;81.81;99640.17;1713088;83;21011;-72
2022/04/26 15:43:09;;;;;;;6.42;2.58;;;;;;;14.42;82.36;99646.19;1713167;82;21012;-72
2022/04/26 15:45:36;;;;;;;5.25;2.70;;;;;;;14.35;82.68;99650.61;1713295;83;21022;-72
2022/04/26 15:48:05;;;;;;;5.53;2.90;;;;;;;14.27;84.19;99654.57;1713120;83;21029;-72
2022/04/26 15:50:32;;;;;;;3.37;2.70;;;;;;;14.20;85.44;99655.04;1713316;83;21915;-72